sensor_id;sensor_type;location;lat;lon;timestamp;pressure;altitude;pressure_sealevel;temperature
20092;BMP180;10205;49.678;6.560;2023-08-07T00:01:24;99909.00;;;17.40
20092;BMP180;10205;49.678;6.560;2023-08-07T00:03:52;99911.00;;;17.40
20092;BMP180;10205;49.678;6.560;2023-08-07T00:06:19;99899.00;;;17.40
20092;BMP180;10205;49.678;6.560;2023-08-07T00:08:46;99922.00;;;17.40
20092;BMP180;10205;49.678;6.560;2023-08-07T00:11:14;99898.00;;;17.40
20092;BMP180;10205;49.678;6.560;2023-08-07T00:13:41;99911.00;;;17.40
20092;BMP180;10205;49.678;6.560;2023-08-07T00:16:08;99903.00;;;17.40
20092;BMP180;10205;49.678;6.560;2023-08-07T00:18:38;99913.00;;;17.40
20092;BMP180;10205;49.678;6.560;2023-08-07T00:21:05;99913.00;;;17.30
20092;BMP180;10205;49.678;6.560;2023-08-07T00:23:33;99917.00;;;17.30
20092;BMP180;10205;49.678;6.560;2023-08-07T00:26:01;99915.00;;;17.30
20092;BMP180;10205;49.678;6.560;2023-08-07T00:28:29;99916.00;;;17.30
20092;BMP180;10205;49.678;6.560;2023-08-07T00:30:59;99899.00;;;17.30
20092;BMP180;10205;49.678;6.560;2023-08-07T00:33:29;99913.00;;;17.30
20092;BMP180;10205;49.678;6.560;2023-08-07T00:35:58;99919.00;;;17.30
20092;BMP180;10205;49.678;6.560;2023-08-07T00:38:25;99920.00;;;17.30
20092;BMP180;10205;49.678;6.560;2023-08-07T00:40:53;99924.00;;;17.30
20092;BMP180;10205;49.678;6.560;2023-08-07T00:43:20;99934.00;;;17.30
20092;BMP180;10205;49.678;6.560;2023-08-07T00:45:48;99935.00;;;17.30
20092;BMP180;10205;49.678;6.560;2023-08-07T00:48:16;99927.00;;;17.20
20092;BMP180;10205;49.678;6.560;2023-08-07T00:50:46;99938.00;;;17.20
20092;BMP180;10205;49.678;6.560;2023-08-07T00:53:16;99934.00;;;17.20
20092;BMP180;10205;49.678;6.560;2023-08-07T00:55:44;99937.00;;;17.20
20092;BMP180;10205;49.678;6.560;2023-08-07T00:58:13;99941.00;;;17.20
20092;BMP180;10205;49.678;6.560;2023-08-07T01:00:41;99943.00;;;17.20
20092;BMP180;10205;49.678;6.560;2023-08-07T01:03:11;99938.00;;;17.10
20092;BMP180;10205;49.678;6.560;2023-08-07T01:05:40;99917.00;;;17.10
20092;BMP180;10205;49.678;6.560;2023-08-07T01:08:09;99933.00;;;17.10
20092;BMP180;10205;49.678;6.560;2023-08-07T01:11:03;99924.00;;;17.10
20092;BMP180;10205;49.678;6.560;2023-08-07T01:13:38;99902.00;;;17.00
20092;BMP180;10205;49.678;6.560;2023-08-07T01:16:15;99931.00;;;17.00
20092;BMP180;10205;49.678;6.560;2023-08-07T01:18:46;99924.00;;;17.00
20092;BMP180;10205;49.678;6.560;2023-08-07T01:21:18;99924.00;;;17.00
20092;BMP180;10205;49.678;6.560;2023-08-07T01:23:48;99921.00;;;17.00
20092;BMP180;10205;49.678;6.560;2023-08-07T01:26:20;99924.00;;;17.00
20092;BMP180;10205;49.678;6.560;2023-08-07T01:28:56;99939.00;;;16.90
20092;BMP180;10205;49.678;6.560;2023-08-07T01:31:27;99925.00;;;16.90
20092;BMP180;10205;49.678;6.560;2023-08-07T01:34:01;99924.00;;;16.90
20092;BMP180;10205;49.678;6.560;2023-08-07T01:36:30;99929.00;;;16.90
20092;BMP180;10205;49.678;6.560;2023-08-07T01:39:01;99938.00;;;16.90
20092;BMP180;10205;49.678;6.560;2023-08-07T01:41:30;99940.00;;;16.90
20092;BMP180;10205;49.678;6.560;2023-08-07T01:43:58;99942.00;;;16.80
20092;BMP180;10205;49.678;6.560;2023-08-07T01:46:26;99938.00;;;16.80
20092;BMP180;10205;49.678;6.560;2023-08-07T01:48:53;99935.00;;;16.80
20092;BMP180;10205;49.678;6.560;2023-08-07T01:51:20;99939.00;;;16.70
20092;BMP180;10205;49.678;6.560;2023-08-07T01:53:48;99946.00;;;16.80
20092;BMP180;10205;49.678;6.560;2023-08-07T01:56:17;99940.00;;;16.70
20092;BMP180;10205;49.678;6.560;2023-08-07T01:58:44;99923.00;;;16.70
20092;BMP180;10205;49.678;6.560;2023-08-07T02:01:13;99929.00;;;16.70
20092;BMP180;10205;49.678;6.560;2023-08-07T02:03:40;99939.00;;;16.70
20092;BMP180;10205;49.678;6.560;2023-08-07T02:06:08;99914.00;;;16.70
20092;BMP180;10205;49.678;6.560;2023-08-07T02:08:36;99936.00;;;16.60
20092;BMP180;10205;49.678;6.560;2023-08-07T02:11:03;99927.00;;;16.70
20092;BMP180;10205;49.678;6.560;2023-08-07T02:13:32;99907.00;;;16.70
20092;BMP180;10205;49.678;6.560;2023-08-07T02:16:00;99930.00;;;16.70
20092;BMP180;10205;49.678;6.560;2023-08-07T02:18:27;99932.00;;;16.60
20092;BMP180;10205;49.678;6.560;2023-08-07T02:20:55;99941.00;;;16.60
20092;BMP180;10205;49.678;6.560;2023-08-07T02:23:22;99938.00;;;16.60
20092;BMP180;10205;49.678;6.560;2023-08-07T02:25:50;99947.00;;;16.60
20092;BMP180;10205;49.678;6.560;2023-08-07T02:28:18;99930.00;;;16.60
20092;BMP180;10205;49.678;6.560;2023-08-07T02:30:47;99952.00;;;16.60
20092;BMP180;10205;49.678;6.560;2023-08-07T02:33:17;99951.00;;;16.60
20092;BMP180;10205;49.678;6.560;2023-08-07T02:35:44;99942.00;;;16.50
20092;BMP180;10205;49.678;6.560;2023-08-07T02:38:12;99946.00;;;16.50
20092;BMP180;10205;49.678;6.560;2023-08-07T02:40:40;99940.00;;;16.50
20092;BMP180;10205;49.678;6.560;2023-08-07T02:43:07;99943.00;;;16.50
20092;BMP180;10205;49.678;6.560;2023-08-07T02:45:35;99936.00;;;16.50
20092;BMP180;10205;49.678;6.560;2023-08-07T02:48:05;99933.00;;;16.50
20092;BMP180;10205;49.678;6.560;2023-08-07T02:50:32;99942.00;;;16.40
20092;BMP180;10205;49.678;6.560;2023-08-07T02:53:00;99938.00;;;16.50
20092;BMP180;10205;49.678;6.560;2023-08-07T02:55:28;99935.00;;;16.40
20092;BMP180;10205;49.678;6.560;2023-08-07T02:57:55;99950.00;;;16.40
20092;BMP180;10205;49.678;6.560;2023-08-07T03:00:23;99949.00;;;16.40
20092;BMP180;10205;49.678;6.560;2023-08-07T03:02:50;99946.00;;;16.40
20092;BMP180;10205;49.678;6.560;2023-08-07T03:05:19;99939.00;;;16.30
20092;BMP180;10205;49.678;6.560;2023-08-07T03:07:47;99953.00;;;16.10
20092;BMP180;10205;49.678;6.560;2023-08-07T03:10:15;99926.00;;;16.30
20092;BMP180;10205;49.678;6.560;2023-08-07T03:12:42;99942.00;;;16.30
20092;BMP180;10205;49.678;6.560;2023-08-07T03:15:10;99945.00;;;16.30
20092;BMP180;10205;49.678;6.560;2023-08-07T03:17:38;99944.00;;;16.30
20092;BMP180;10205;49.678;6.560;2023-08-07T03:20:06;99935.00;;;16.20
20092;BMP180;10205;49.678;6.560;2023-08-07T03:22:36;99936.00;;;16.20
20092;BMP180;10205;49.678;6.560;2023-08-07T03:25:05;99938.00;;;16.20
20092;BMP180;10205;49.678;6.560;2023-08-07T03:27:32;99941.00;;;16.20
20092;BMP180;10205;49.678;6.560;2023-08-07T03:30:00;99940.00;;;16.20
20092;BMP180;10205;49.678;6.560;2023-08-07T03:32:27;99938.00;;;16.10
20092;BMP180;10205;49.678;6.560;2023-08-07T03:34:54;99938.00;;;16.10
20092;BMP180;10205;49.678;6.560;2023-08-07T03:37:22;99939.00;;;16.10
20092;BMP180;10205;49.678;6.560;2023-08-07T03:39:51;99924.00;;;16.10
20092;BMP180;10205;49.678;6.560;2023-08-07T03:42:18;99940.00;;;16.10
20092;BMP180;10205;49.678;6.560;2023-08-07T03:44:45;99931.00;;;16.10
20092;BMP180;10205;49.678;6.560;2023-08-07T03:47:13;99910.00;;;16.00
20092;BMP180;10205;49.678;6.560;2023-08-07T03:49:41;99942.00;;;16.10
20092;BMP180;10205;49.678;6.560;2023-08-07T03:52:08;99934.00;;;16.00
20092;BMP180;10205;49.678;6.560;2023-08-07T03:54:36;99920.00;;;16.00
20092;BMP180;10205;49.678;6.560;2023-08-07T03:57:05;99928.00;;;16.00
20092;BMP180;10205;49.678;6.560;2023-08-07T03:59:34;99934.00;;;16.00
20092;BMP180;10205;49.678;6.560;2023-08-07T04:02:01;99935.00;;;16.00
20092;BMP180;10205;49.678;6.560;2023-08-07T04:04:29;99932.00;;;15.90
20092;BMP180;10205;49.678;6.560;2023-08-07T04:06:56;99930.00;;;15.90
20092;BMP180;10205;49.678;6.560;2023-08-07T04:09:24;99937.00;;;15.90
20092;BMP180;10205;49.678;6.560;2023-08-07T04:11:51;99941.00;;;15.90
20092;BMP180;10205;49.678;6.560;2023-08-07T04:14:20;99949.00;;;15.90
20092;BMP180;10205;49.678;6.560;2023-08-07T04:16:48;99925.00;;;15.90
20092;BMP180;10205;49.678;6.560;2023-08-07T04:19:16;99925.00;;;15.90
20092;BMP180;10205;49.678;6.560;2023-08-07T04:21:43;99942.00;;;15.90
20092;BMP180;10205;49.678;6.560;2023-08-07T04:24:11;99942.00;;;15.80
20092;BMP180;10205;49.678;6.560;2023-08-07T04:26:38;99948.00;;;15.90
20092;BMP180;10205;49.678;6.560;2023-08-07T04:29:06;99946.00;;;15.80
20092;BMP180;10205;49.678;6.560;2023-08-07T04:31:36;99945.00;;;15.80
20092;BMP180;10205;49.678;6.560;2023-08-07T04:34:03;99936.00;;;15.80
20092;BMP180;10205;49.678;6.560;2023-08-07T04:36:30;99945.00;;;15.80
20092;BMP180;10205;49.678;6.560;2023-08-07T04:38:59;99940.00;;;15.80
20092;BMP180;10205;49.678;6.560;2023-08-07T04:41:27;99947.00;;;15.80
20092;BMP180;10205;49.678;6.560;2023-08-07T04:43:55;99965.00;;;15.80
20092;BMP180;10205;49.678;6.560;2023-08-07T04:46:23;99947.00;;;15.80
20092;BMP180;10205;49.678;6.560;2023-08-07T04:48:52;99890.00;;;15.80
20092;BMP180;10205;49.678;6.560;2023-08-07T04:51:20;99963.00;;;15.80
20092;BMP180;10205;49.678;6.560;2023-08-07T04:53:48;99967.00;;;15.80
20092;BMP180;10205;49.678;6.560;2023-08-07T04:56:16;99968.00;;;15.80
20092;BMP180;10205;49.678;6.560;2023-08-07T04:58:44;99968.00;;;15.70
20092;BMP180;10205;49.678;6.560;2023-08-07T05:01:11;99971.00;;;15.70
20092;BMP180;10205;49.678;6.560;2023-08-07T05:03:39;99969.00;;;15.70
20092;BMP180;10205;49.678;6.560;2023-08-07T05:06:08;99949.00;;;15.70
20092;BMP180;10205;49.678;6.560;2023-08-07T05:08:35;99970.00;;;15.70
20092;BMP180;10205;49.678;6.560;2023-08-07T05:11:02;99972.00;;;15.70
20092;BMP180;10205;49.678;6.560;2023-08-07T05:13:29;99968.00;;;15.70
20092;BMP180;10205;49.678;6.560;2023-08-07T05:15:57;99967.00;;;15.70
20092;BMP180;10205;49.678;6.560;2023-08-07T05:18:24;99985.00;;;15.70
20092;BMP180;10205;49.678;6.560;2023-08-07T05:20:52;99963.00;;;15.60
20092;BMP180;10205;49.678;6.560;2023-08-07T05:23:22;99981.00;;;15.70
20092;BMP180;10205;49.678;6.560;2023-08-07T05:25:49;99975.00;;;15.60
20092;BMP180;10205;49.678;6.560;2023-08-07T05:28:17;99979.00;;;15.60
20092;BMP180;10205;49.678;6.560;2023-08-07T05:30:44;99983.00;;;15.60
20092;BMP180;10205;49.678;6.560;2023-08-07T05:33:12;99977.00;;;15.60
20092;BMP180;10205;49.678;6.560;2023-08-07T05:35:41;99980.00;;;15.60
20092;BMP180;10205;49.678;6.560;2023-08-07T05:38:09;99979.00;;;15.60
20092;BMP180;10205;49.678;6.560;2023-08-07T05:40:38;99987.00;;;15.60
20092;BMP180;10205;49.678;6.560;2023-08-07T05:43:06;99979.00;;;15.60
20092;BMP180;10205;49.678;6.560;2023-08-07T05:45:34;99981.00;;;15.60
20092;BMP180;10205;49.678;6.560;2023-08-07T05:48:02;99985.00;;;15.60
20092;BMP180;10205;49.678;6.560;2023-08-07T05:50:30;99986.00;;;15.60
20092;BMP180;10205;49.678;6.560;2023-08-07T05:52:57;99994.00;;;15.60
20092;BMP180;10205;49.678;6.560;2023-08-07T05:55:24;99990.00;;;15.50
20092;BMP180;10205;49.678;6.560;2023-08-07T05:57:53;100007.00;;;15.50
20092;BMP180;10205;49.678;6.560;2023-08-07T06:00:21;100011.00;;;15.60
20092;BMP180;10205;49.678;6.560;2023-08-07T06:02:48;100006.00;;;15.50
20092;BMP180;10205;49.678;6.560;2023-08-07T06:05:17;100014.00;;;15.50
20092;BMP180;10205;49.678;6.560;2023-08-07T06:07:44;99992.00;;;15.50
20092;BMP180;10205;49.678;6.560;2023-08-07T06:10:12;100015.00;;;15.60
20092;BMP180;10205;49.678;6.560;2023-08-07T06:12:40;100014.00;;;15.60
20092;BMP180;10205;49.678;6.560;2023-08-07T06:15:10;100030.00;;;15.60
20092;BMP180;10205;49.678;6.560;2023-08-07T06:17:37;100008.00;;;15.60
20092;BMP180;10205;49.678;6.560;2023-08-07T06:20:09;100020.00;;;15.60
20092;BMP180;10205;49.678;6.560;2023-08-07T06:22:37;100003.00;;;15.60
20092;BMP180;10205;49.678;6.560;2023-08-07T06:25:06;100029.00;;;15.70
20092;BMP180;10205;49.678;6.560;2023-08-07T06:27:34;100031.00;;;15.70
20092;BMP180;10205;49.678;6.560;2023-08-07T06:30:03;100030.00;;;15.70
20092;BMP180;10205;49.678;6.560;2023-08-07T06:32:32;100035.00;;;15.70
20092;BMP180;10205;49.678;6.560;2023-08-07T06:35:00;100025.00;;;15.80
20092;BMP180;10205;49.678;6.560;2023-08-07T06:37:27;100036.00;;;15.80
20092;BMP180;10205;49.678;6.560;2023-08-07T06:39:55;100037.00;;;15.80
20092;BMP180;10205;49.678;6.560;2023-08-07T06:42:22;100036.00;;;15.90
20092;BMP180;10205;49.678;6.560;2023-08-07T06:44:50;100036.00;;;15.90
20092;BMP180;10205;49.678;6.560;2023-08-07T06:47:17;100037.00;;;16.00
20092;BMP180;10205;49.678;6.560;2023-08-07T06:49:46;100047.00;;;16.00
20092;BMP180;10205;49.678;6.560;2023-08-07T06:52:14;100040.00;;;16.00
20092;BMP180;10205;49.678;6.560;2023-08-07T06:54:42;100045.00;;;16.00
20092;BMP180;10205;49.678;6.560;2023-08-07T06:57:09;100042.00;;;16.10
20092;BMP180;10205;49.678;6.560;2023-08-07T06:59:37;100030.00;;;16.10
20092;BMP180;10205;49.678;6.560;2023-08-07T07:02:05;100038.00;;;16.10
20092;BMP180;10205;49.678;6.560;2023-08-07T07:04:33;100041.00;;;16.20
20092;BMP180;10205;49.678;6.560;2023-08-07T07:07:03;100040.00;;;16.20
20092;BMP180;10205;49.678;6.560;2023-08-07T07:09:31;100047.00;;;16.20
20092;BMP180;10205;49.678;6.560;2023-08-07T07:11:58;100040.00;;;16.30
20092;BMP180;10205;49.678;6.560;2023-08-07T07:14:26;100041.00;;;16.30
20092;BMP180;10205;49.678;6.560;2023-08-07T07:16:54;100040.00;;;16.30
20092;BMP180;10205;49.678;6.560;2023-08-07T07:19:21;100041.00;;;16.40
20092;BMP180;10205;49.678;6.560;2023-08-07T07:21:48;100039.00;;;16.40
20092;BMP180;10205;49.678;6.560;2023-08-07T07:24:17;100043.00;;;16.40
20092;BMP180;10205;49.678;6.560;2023-08-07T07:26:45;100052.00;;;16.40
20092;BMP180;10205;49.678;6.560;2023-08-07T07:29:12;100021.00;;;16.40
20092;BMP180;10205;49.678;6.560;2023-08-07T07:31:40;100032.00;;;16.50
20092;BMP180;10205;49.678;6.560;2023-08-07T07:34:07;100043.00;;;16.50
20092;BMP180;10205;49.678;6.560;2023-08-07T07:36:35;100045.00;;;16.40
20092;BMP180;10205;49.678;6.560;2023-08-07T07:39:04;100042.00;;;16.60
20092;BMP180;10205;49.678;6.560;2023-08-07T07:41:33;100048.00;;;16.60
20092;BMP180;10205;49.678;6.560;2023-08-07T07:44:00;100052.00;;;16.60
20092;BMP180;10205;49.678;6.560;2023-08-07T07:46:28;100046.00;;;16.70
20092;BMP180;10205;49.678;6.560;2023-08-07T07:48:57;100054.00;;;16.70
20092;BMP180;10205;49.678;6.560;2023-08-07T07:51:25;100057.00;;;16.70
20092;BMP180;10205;49.678;6.560;2023-08-07T07:53:52;100059.00;;;16.70
20092;BMP180;10205;49.678;6.560;2023-08-07T07:56:20;100052.00;;;16.80
20092;BMP180;10205;49.678;6.560;2023-08-07T07:58:49;100065.00;;;16.80
20092;BMP180;10205;49.678;6.560;2023-08-07T08:01:17;100050.00;;;16.80
20092;BMP180;10205;49.678;6.560;2023-08-07T08:03:45;100054.00;;;16.90
20092;BMP180;10205;49.678;6.560;2023-08-07T08:06:12;100059.00;;;16.90
20092;BMP180;10205;49.678;6.560;2023-08-07T08:08:40;100064.00;;;17.00
20092;BMP180;10205;49.678;6.560;2023-08-07T08:11:08;100059.00;;;17.00
20092;BMP180;10205;49.678;6.560;2023-08-07T08:13:35;100060.00;;;17.00
20092;BMP180;10205;49.678;6.560;2023-08-07T08:16:07;100068.00;;;17.00
20092;BMP180;10205;49.678;6.560;2023-08-07T08:18:34;100065.00;;;17.10
20092;BMP180;10205;49.678;6.560;2023-08-07T08:21:02;100070.00;;;17.10
20092;BMP180;10205;49.678;6.560;2023-08-07T08:23:29;100063.00;;;17.10
20092;BMP180;10205;49.678;6.560;2023-08-07T08:25:57;100069.00;;;17.20
20092;BMP180;10205;49.678;6.560;2023-08-07T08:28:25;100058.00;;;17.30
20092;BMP180;10205;49.678;6.560;2023-08-07T08:30:52;100055.00;;;17.30
20092;BMP180;10205;49.678;6.560;2023-08-07T08:33:21;100070.00;;;17.40
20092;BMP180;10205;49.678;6.560;2023-08-07T08:35:49;100047.00;;;17.40
20092;BMP180;10205;49.678;6.560;2023-08-07T08:38:16;100066.00;;;17.50
20092;BMP180;10205;49.678;6.560;2023-08-07T08:40:47;100064.00;;;17.50
20092;BMP180;10205;49.678;6.560;2023-08-07T08:43:16;100070.00;;;17.60
20092;BMP180;10205;49.678;6.560;2023-08-07T08:45:45;100077.00;;;17.60
20092;BMP180;10205;49.678;6.560;2023-08-07T08:48:21;100064.00;;;17.70
20092;BMP180;10205;49.678;6.560;2023-08-07T08:50:50;100081.00;;;17.70
20092;BMP180;10205;49.678;6.560;2023-08-07T08:53:21;100067.00;;;17.80
20092;BMP180;10205;49.678;6.560;2023-08-07T08:55:51;100053.00;;;17.90
20092;BMP180;10205;49.678;6.560;2023-08-07T08:58:20;100063.00;;;17.90
20092;BMP180;10205;49.678;6.560;2023-08-07T09:00:48;100064.00;;;18.00
20092;BMP180;10205;49.678;6.560;2023-08-07T09:03:18;100067.00;;;18.00
20092;BMP180;10205;49.678;6.560;2023-08-07T09:05:49;100078.00;;;18.10
20092;BMP180;10205;49.678;6.560;2023-08-07T09:08:17;100084.00;;;18.20
20092;BMP180;10205;49.678;6.560;2023-08-07T09:10:45;100091.00;;;18.20
20092;BMP180;10205;49.678;6.560;2023-08-07T09:13:16;100082.00;;;18.30
20092;BMP180;10205;49.678;6.560;2023-08-07T09:15:46;100097.00;;;18.40
20092;BMP180;10205;49.678;6.560;2023-08-07T09:18:17;100076.00;;;18.40
20092;BMP180;10205;49.678;6.560;2023-08-07T09:20:48;100089.00;;;18.50
20092;BMP180;10205;49.678;6.560;2023-08-07T09:23:16;100078.00;;;18.60
20092;BMP180;10205;49.678;6.560;2023-08-07T09:25:44;100079.00;;;18.60
20092;BMP180;10205;49.678;6.560;2023-08-07T09:28:12;100081.00;;;18.70
20092;BMP180;10205;49.678;6.560;2023-08-07T09:30:42;100082.00;;;18.80
20092;BMP180;10205;49.678;6.560;2023-08-07T09:33:10;100087.00;;;18.90
20092;BMP180;10205;49.678;6.560;2023-08-07T09:35:37;100085.00;;;18.90
20092;BMP180;10205;49.678;6.560;2023-08-07T09:38:08;100085.00;;;19.00
20092;BMP180;10205;49.678;6.560;2023-08-07T09:40:35;100087.00;;;19.10
20092;BMP180;10205;49.678;6.560;2023-08-07T09:43:06;100087.00;;;19.10
20092;BMP180;10205;49.678;6.560;2023-08-07T09:45:34;100090.00;;;19.20
20092;BMP180;10205;49.678;6.560;2023-08-07T09:48:05;100060.00;;;19.20
20092;BMP180;10205;49.678;6.560;2023-08-07T09:50:34;100082.00;;;19.30
20092;BMP180;10205;49.678;6.560;2023-08-07T09:53:01;100095.00;;;19.40
20092;BMP180;10205;49.678;6.560;2023-08-07T09:55:30;100097.00;;;19.50
20092;BMP180;10205;49.678;6.560;2023-08-07T09:58:00;100092.00;;;19.50
20092;BMP180;10205;49.678;6.560;2023-08-07T10:00:34;100096.00;;;19.60
20092;BMP180;10205;49.678;6.560;2023-08-07T10:03:02;100104.00;;;19.70
20092;BMP180;10205;49.678;6.560;2023-08-07T10:05:30;100088.00;;;19.70
20092;BMP180;10205;49.678;6.560;2023-08-07T10:07:59;100100.00;;;19.70
20092;BMP180;10205;49.678;6.560;2023-08-07T10:10:29;100109.00;;;19.80
20092;BMP180;10205;49.678;6.560;2023-08-07T10:13:01;100104.00;;;19.80
20092;BMP180;10205;49.678;6.560;2023-08-07T10:15:31;100106.00;;;19.90
20092;BMP180;10205;49.678;6.560;2023-08-07T10:17:59;100111.00;;;20.00
20092;BMP180;10205;49.678;6.560;2023-08-07T10:20:28;100107.00;;;20.00
20092;BMP180;10205;49.678;6.560;2023-08-07T10:23:00;100100.00;;;20.10
20092;BMP180;10205;49.678;6.560;2023-08-07T10:25:36;100106.00;;;20.10
20092;BMP180;10205;49.678;6.560;2023-08-07T10:28:12;100102.00;;;20.20
20092;BMP180;10205;49.678;6.560;2023-08-07T10:30:42;100106.00;;;20.20
20092;BMP180;10205;49.678;6.560;2023-08-07T10:33:12;100110.00;;;20.30
20092;BMP180;10205;49.678;6.560;2023-08-07T10:35:46;100089.00;;;20.40
20092;BMP180;10205;49.678;6.560;2023-08-07T10:38:14;100114.00;;;20.50
20092;BMP180;10205;49.678;6.560;2023-08-07T10:41:06;100098.00;;;20.50
20092;BMP180;10205;49.678;6.560;2023-08-07T10:43:38;100104.00;;;20.60
20092;BMP180;10205;49.678;6.560;2023-08-07T10:46:09;100102.00;;;20.60
20092;BMP180;10205;49.678;6.560;2023-08-07T10:48:41;100096.00;;;20.70
20092;BMP180;10205;49.678;6.560;2023-08-07T10:51:13;100102.00;;;20.70
20092;BMP180;10205;49.678;6.560;2023-08-07T10:53:43;100096.00;;;20.80
20092;BMP180;10205;49.678;6.560;2023-08-07T10:56:18;100109.00;;;20.90
20092;BMP180;10205;49.678;6.560;2023-08-07T10:58:51;100099.00;;;21.00
20092;BMP180;10205;49.678;6.560;2023-08-07T11:01:22;100100.00;;;21.10
20092;BMP180;10205;49.678;6.560;2023-08-07T11:03:52;100083.00;;;21.10
20092;BMP180;10205;49.678;6.560;2023-08-07T11:06:23;100102.00;;;21.20
20092;BMP180;10205;49.678;6.560;2023-08-07T11:08:52;100085.00;;;21.30
20092;BMP180;10205;49.678;6.560;2023-08-07T11:11:21;100095.00;;;21.40
20092;BMP180;10205;49.678;6.560;2023-08-07T11:13:49;100107.00;;;21.50
20092;BMP180;10205;49.678;6.560;2023-08-07T11:16:17;100103.00;;;21.50
20092;BMP180;10205;49.678;6.560;2023-08-07T11:18:48;100100.00;;;21.60
20092;BMP180;10205;49.678;6.560;2023-08-07T11:21:16;100102.00;;;21.60
20092;BMP180;10205;49.678;6.560;2023-08-07T11:23:43;100104.00;;;21.70
20092;BMP180;10205;49.678;6.560;2023-08-07T11:26:22;100097.00;;;21.80
20092;BMP180;10205;49.678;6.560;2023-08-07T11:28:57;100098.00;;;21.80
20092;BMP180;10205;49.678;6.560;2023-08-07T11:31:25;100095.00;;;21.90
20092;BMP180;10205;49.678;6.560;2023-08-07T11:33:55;100098.00;;;21.90
20092;BMP180;10205;49.678;6.560;2023-08-07T11:36:24;100096.00;;;22.00
20092;BMP180;10205;49.678;6.560;2023-08-07T11:38:52;100094.00;;;22.10
20092;BMP180;10205;49.678;6.560;2023-08-07T11:41:19;100112.00;;;22.20
20092;BMP180;10205;49.678;6.560;2023-08-07T11:43:48;100103.00;;;22.20
20092;BMP180;10205;49.678;6.560;2023-08-07T11:46:16;100090.00;;;22.30
20092;BMP180;10205;49.678;6.560;2023-08-07T11:48:44;100100.00;;;22.40
20092;BMP180;10205;49.678;6.560;2023-08-07T11:51:12;100089.00;;;22.40
20092;BMP180;10205;49.678;6.560;2023-08-07T11:53:42;100098.00;;;22.40
20092;BMP180;10205;49.678;6.560;2023-08-07T11:56:11;100097.00;;;22.50
20092;BMP180;10205;49.678;6.560;2023-08-07T11:58:42;100106.00;;;22.50
20092;BMP180;10205;49.678;6.560;2023-08-07T12:01:15;100100.00;;;22.50
20092;BMP180;10205;49.678;6.560;2023-08-07T12:03:52;100103.00;;;22.60
20092;BMP180;10205;49.678;6.560;2023-08-07T12:06:21;100090.00;;;22.60
20092;BMP180;10205;49.678;6.560;2023-08-07T12:08:53;100097.00;;;22.70
20092;BMP180;10205;49.678;6.560;2023-08-07T12:11:21;100095.00;;;22.70
20092;BMP180;10205;49.678;6.560;2023-08-07T12:13:49;100095.00;;;22.80
20092;BMP180;10205;49.678;6.560;2023-08-07T12:16:18;100106.00;;;22.80
20092;BMP180;10205;49.678;6.560;2023-08-07T12:18:48;100092.00;;;22.80
20092;BMP180;10205;49.678;6.560;2023-08-07T12:21:17;100095.00;;;22.90
20092;BMP180;10205;49.678;6.560;2023-08-07T12:23:46;100092.00;;;22.90
20092;BMP180;10205;49.678;6.560;2023-08-07T12:26:14;100092.00;;;22.90
20092;BMP180;10205;49.678;6.560;2023-08-07T12:28:42;100099.00;;;23.00
20092;BMP180;10205;49.678;6.560;2023-08-07T12:31:09;100097.00;;;23.00
20092;BMP180;10205;49.678;6.560;2023-08-07T12:33:38;100091.00;;;23.10
20092;BMP180;10205;49.678;6.560;2023-08-07T12:36:05;100090.00;;;23.20
20092;BMP180;10205;49.678;6.560;2023-08-07T12:38:34;100098.00;;;23.20
20092;BMP180;10205;49.678;6.560;2023-08-07T12:41:01;100090.00;;;23.30
20092;BMP180;10205;49.678;6.560;2023-08-07T12:43:30;100095.00;;;23.30
20092;BMP180;10205;49.678;6.560;2023-08-07T12:45:59;100098.00;;;23.40
20092;BMP180;10205;49.678;6.560;2023-08-07T12:48:27;100085.00;;;23.40
20092;BMP180;10205;49.678;6.560;2023-08-07T12:50:56;100100.00;;;23.50
20092;BMP180;10205;49.678;6.560;2023-08-07T12:53:24;100109.00;;;23.50
20092;BMP180;10205;49.678;6.560;2023-08-07T12:55:51;100095.00;;;23.60
20092;BMP180;10205;49.678;6.560;2023-08-07T12:58:18;100101.00;;;23.60
20092;BMP180;10205;49.678;6.560;2023-08-07T13:00:51;100088.00;;;23.60
20092;BMP180;10205;49.678;6.560;2023-08-07T13:03:19;100102.00;;;23.70
20092;BMP180;10205;49.678;6.560;2023-08-07T13:05:46;100108.00;;;23.70
20092;BMP180;10205;49.678;6.560;2023-08-07T13:08:15;100100.00;;;23.80
20092;BMP180;10205;49.678;6.560;2023-08-07T13:10:43;100100.00;;;23.80
20092;BMP180;10205;49.678;6.560;2023-08-07T13:13:11;100110.00;;;23.80
20092;BMP180;10205;49.678;6.560;2023-08-07T13:15:38;100109.00;;;23.90
20092;BMP180;10205;49.678;6.560;2023-08-07T13:18:05;100103.00;;;23.90
20092;BMP180;10205;49.678;6.560;2023-08-07T13:20:33;100093.00;;;23.90
20092;BMP180;10205;49.678;6.560;2023-08-07T13:23:01;100099.00;;;24.00
20092;BMP180;10205;49.678;6.560;2023-08-07T13:25:33;100088.00;;;24.00
20092;BMP180;10205;49.678;6.560;2023-08-07T13:28:01;100092.00;;;24.00
20092;BMP180;10205;49.678;6.560;2023-08-07T13:30:32;100090.00;;;24.10
20092;BMP180;10205;49.678;6.560;2023-08-07T13:33:00;100096.00;;;24.10
20092;BMP180;10205;49.678;6.560;2023-08-07T13:35:27;100090.00;;;24.10
20092;BMP180;10205;49.678;6.560;2023-08-07T13:37:55;100096.00;;;24.20
20092;BMP180;10205;49.678;6.560;2023-08-07T13:40:22;100087.00;;;24.20
20092;BMP180;10205;49.678;6.560;2023-08-07T13:42:51;100091.00;;;24.30
20092;BMP180;10205;49.678;6.560;2023-08-07T13:45:19;100096.00;;;24.30
20092;BMP180;10205;49.678;6.560;2023-08-07T13:47:47;100081.00;;;24.40
20092;BMP180;10205;49.678;6.560;2023-08-07T13:50:14;100097.00;;;24.40
20092;BMP180;10205;49.678;6.560;2023-08-07T13:52:42;100097.00;;;24.40
20092;BMP180;10205;49.678;6.560;2023-08-07T13:55:09;100095.00;;;24.40
20092;BMP180;10205;49.678;6.560;2023-08-07T13:57:36;100106.00;;;24.40
20092;BMP180;10205;49.678;6.560;2023-08-07T14:00:07;100106.00;;;24.40
20092;BMP180;10205;49.678;6.560;2023-08-07T14:02:35;100102.00;;;24.40
20092;BMP180;10205;49.678;6.560;2023-08-07T14:05:03;100100.00;;;24.50
20092;BMP180;10205;49.678;6.560;2023-08-07T14:07:31;100104.00;;;24.50
20092;BMP180;10205;49.678;6.560;2023-08-07T14:09:58;100090.00;;;24.50